sensor_id;sensor_type;location;lat;lon;timestamp;pressure;altitude;pressure_sealevel;temperature;humidity
2268;BME280;11052;43.338;25.502;2023-03-21T00:02:10;100543.97;;;6.32;100.00
2268;BME280;11052;43.338;25.502;2023-03-21T00:04:37;100543.97;;;6.35;100.00
2268;BME280;11052;43.338;25.502;2023-03-21T00:07:04;100541.34;;;6.41;100.00
2268;BME280;11052;43.338;25.502;2023-03-21T00:09:31;100543.94;;;6.38;100.00
2268;BME280;11052;43.338;25.502;2023-03-21T00:11:58;100537.06;;;6.40;100.00
2268;BME280;11052;43.338;25.502;2023-03-21T00:14:26;100531.97;;;6.31;100.00
2268;BME280;11052;43.338;25.502;2023-03-21T00:16:57;100528.50;;;6.35;100.00
2268;BME280;11052;43.338;25.502;2023-03-21T00:19:24;100528.59;;;6.25;100.00
2268;BME280;11052;43.338;25.502;2023-03-21T00:21:53;100521.75;;;6.21;100.00
2268;BME280;11052;43.338;25.502;2023-03-21T00:24:21;100509.69;;;6.28;100.00
2268;BME280;11052;43.338;25.502;2023-03-21T00:26:48;100517.34;;;6.34;100.00
2268;BME280;11052;43.338;25.502;2023-03-21T00:29:15;100516.41;;;6.43;100.00
2268;BME280;11052;43.338;25.502;2023-03-21T00:31:42;100514.59;;;6.52;100.00
2268;BME280;11052;43.338;25.502;2023-03-21T00:34:11;100510.28;;;6.57;100.00
2268;BME280;11052;43.338;25.502;2023-03-21T00:36:38;100505.84;;;6.70;100.00
2268;BME280;11052;43.338;25.502;2023-03-21T00:39:05;100490.25;;;6.82;100.00
2268;BME280;11052;43.338;25.502;2023-03-21T00:41:33;100483.38;;;6.81;100.00
2268;BME280;11052;43.338;25.502;2023-03-21T00:44:00;100484.25;;;6.80;100.00
2268;BME280;11052;43.338;25.502;2023-03-21T00:46:28;100481.66;;;6.82;100.00
2268;BME280;11052;43.338;25.502;2023-03-21T00:48:55;100481.50;;;6.94;100.00
2268;BME280;11052;43.338;25.502;2023-03-21T00:51:24;100482.31;;;6.96;100.00
2268;BME280;11052;43.338;25.502;2023-03-21T00:53:53;100479.59;;;7.08;100.00
2268;BME280;11052;43.338;25.502;2023-03-21T00:56:21;100467.66;;;7.00;100.00
2268;BME280;11052;43.338;25.502;2023-03-21T00:58:48;100477.06;;;7.04;100.00
2268;BME280;11052;43.338;25.502;2023-03-21T01:01:16;100477.88;;;7.09;100.00
2268;BME280;11052;43.338;25.502;2023-03-21T01:03:43;100468.41;;;7.09;100.00
2268;BME280;11052;43.338;25.502;2023-03-21T01:06:16;100460.72;;;7.05;100.00
2268;BME280;11052;43.338;25.502;2023-03-21T01:08:47;100457.59;;;6.84;100.00
2268;BME280;11052;43.338;25.502;2023-03-21T01:11:16;100455.88;;;6.83;100.00
2268;BME280;11052;43.338;25.502;2023-03-21T01:13:45;100455.84;;;6.86;100.00
2268;BME280;11052;43.338;25.502;2023-03-21T01:16:12;100460.94;;;6.91;100.00
2268;BME280;11052;43.338;25.502;2023-03-21T01:18:40;100461.66;;;7.01;100.00
2268;BME280;11052;43.338;25.502;2023-03-21T01:21:10;100458.94;;;7.10;100.00
2268;BME280;11052;43.338;25.502;2023-03-21T01:23:38;100467.44;;;7.18;100.00
2268;BME280;11052;43.338;25.502;2023-03-21T01:26:08;100469.09;;;7.22;100.00
2268;BME280;11052;43.338;25.502;2023-03-21T01:28:36;100465.59;;;7.26;100.00
2268;BME280;11052;43.338;25.502;2023-03-21T01:31:05;100460.50;;;7.23;100.00
2268;BME280;11052;43.338;25.502;2023-03-21T01:33:33;100469.19;;;7.16;100.00
2268;BME280;11052;43.338;25.502;2023-03-21T01:36:00;100467.22;;;7.33;100.00
2268;BME280;11052;43.338;25.502;2023-03-21T01:38:28;100459.50;;;7.33;100.00
2268;BME280;11052;43.338;25.502;2023-03-21T01:40:55;100458.66;;;7.31;100.00
2268;BME280;11052;43.338;25.502;2023-03-21T01:43:28;100462.88;;;7.37;100.00
2268;BME280;11052;43.338;25.502;2023-03-21T01:46:11;100455.94;;;7.40;100.00
2268;BME280;11052;43.338;25.502;2023-03-21T01:48:47;100458.94;;;7.11;100.00
2268;BME280;11052;43.338;25.502;2023-03-21T01:51:16;100450.94;;;7.30;100.00
2268;BME280;11052;43.338;25.502;2023-03-21T01:53:44;100444.81;;;7.38;100.00
2268;BME280;11052;43.338;25.502;2023-03-21T01:56:17;100443.88;;;7.42;100.00
2268;BME280;11052;43.338;25.502;2023-03-21T01:58:46;100442.13;;;7.44;100.00
2268;BME280;11052;43.338;25.502;2023-03-21T02:01:15;100442.03;;;7.50;100.00
2268;BME280;11052;43.338;25.502;2023-03-21T02:03:45;100435.97;;;7.54;100.00
2268;BME280;11052;43.338;25.502;2023-03-21T02:06:22;100436.09;;;7.45;100.00
2268;BME280;11052;43.338;25.502;2023-03-21T02:08:56;100430.41;;;7.23;100.00
2268;BME280;11052;43.338;25.502;2023-03-21T02:11:24;100420.06;;;7.25;100.00
2268;BME280;11052;43.338;25.502;2023-03-21T02:13:54;100418.47;;;7.16;100.00
2268;BME280;11052;43.338;25.502;2023-03-21T02:16:29;100420.91;;;7.27;100.00
2268;BME280;11052;43.338;25.502;2023-03-21T02:19:13;100429.38;;;7.35;100.00
2268;BME280;11052;43.338;25.502;2023-03-21T02:22:27;100436.91;;;7.49;100.00
2268;BME280;11052;43.338;25.502;2023-03-21T02:25:23;100446.41;;;7.47;100.00
2268;BME280;11052;43.338;25.502;2023-03-21T02:27:58;100446.31;;;7.51;100.00
2268;BME280;11052;43.338;25.502;2023-03-21T02:30:46;100447.97;;;7.55;100.00
2268;BME280;11052;43.338;25.502;2023-03-21T02:33:48;100461.63;;;7.62;100.00
2268;BME280;11052;43.338;25.502;2023-03-21T02:36:26;100464.13;;;7.68;100.00
2268;BME280;11052;43.338;25.502;2023-03-21T02:39:01;100465.72;;;7.75;100.00
2268;BME280;11052;43.338;25.502;2023-03-21T02:41:36;100470.84;;;7.78;100.00
2268;BME280;11052;43.338;25.502;2023-03-21T02:44:10;100469.91;;;7.81;100.00
2268;BME280;11052;43.338;25.502;2023-03-21T02:46:43;100473.31;;;7.84;100.00
2268;BME280;11052;43.338;25.502;2023-03-21T02:49:15;100469.75;;;7.92;100.00
2268;BME280;11052;43.338;25.502;2023-03-21T02:51:46;100465.59;;;7.83;100.00
2268;BME280;11052;43.338;25.502;2023-03-21T02:54:17;100464.84;;;7.78;100.00
2268;BME280;11052;43.338;25.502;2023-03-21T02:56:47;100465.69;;;7.78;100.00
2268;BME280;11052;43.338;25.502;2023-03-21T02:59:16;100463.13;;;7.77;100.00
2268;BME280;11052;43.338;25.502;2023-03-21T03:01:45;100465.72;;;7.77;100.00
2268;BME280;11052;43.338;25.502;2023-03-21T03:04:23;100469.97;;;7.79;100.00
2268;BME280;11052;43.338;25.502;2023-03-21T03:07:06;100461.28;;;7.82;100.00
2268;BME280;11052;43.338;25.502;2023-03-21T03:09:51;100463.81;;;7.85;100.00
2268;BME280;11052;43.338;25.502;2023-03-21T03:12:29;100464.59;;;7.92;100.00
2268;BME280;11052;43.338;25.502;2023-03-21T03:15:03;100468.84;;;7.94;100.00
2268;BME280;11052;43.338;25.502;2023-03-21T03:17:47;100467.00;;;8.01;100.00
2268;BME280;11052;43.338;25.502;2023-03-21T03:20:27;100467.97;;;7.95;100.00
2268;BME280;11052;43.338;25.502;2023-03-21T03:23:04;100466.22;;;7.96;100.00
2268;BME280;11052;43.338;25.502;2023-03-21T03:25:42;100467.22;;;7.88;100.00
2268;BME280;11052;43.338;25.502;2023-03-21T03:28:15;100460.41;;;7.83;100.00
2268;BME280;11052;43.338;25.502;2023-03-21T03:30:44;100454.50;;;7.78;100.00
2268;BME280;11052;43.338;25.502;2023-03-21T03:33:12;100462.13;;;7.84;100.00
2268;BME280;11052;43.338;25.502;2023-03-21T03:35:41;100469.75;;;7.90;100.00
2268;BME280;11052;43.338;25.502;2023-03-21T03:38:11;100456.81;;;7.93;100.00
2268;BME280;11052;43.338;25.502;2023-03-21T03:40:43;100457.81;;;7.84;100.00
2268;BME280;11052;43.338;25.502;2023-03-21T03:43:16;100454.34;;;7.87;100.00
2268;BME280;11052;43.338;25.502;2023-03-21T03:45:48;100460.34;;;7.87;100.00
2268;BME280;11052;43.338;25.502;2023-03-21T03:48:20;100452.47;;;7.95;100.00
2268;BME280;11052;43.338;25.502;2023-03-21T03:50:53;100452.38;;;8.01;100.00
2268;BME280;11052;43.338;25.502;2023-03-21T03:53:26;100453.16;;;8.05;100.00
2268;BME280;11052;43.338;25.502;2023-03-21T03:55:56;100459.16;;;8.07;100.00
2268;BME280;11052;43.338;25.502;2023-03-21T03:58:25;100460.00;;;8.07;100.00
2268;BME280;11052;43.338;25.502;2023-03-21T04:00:53;100465.19;;;8.07;100.00
2268;BME280;11052;43.338;25.502;2023-03-21T04:03:22;100462.69;;;8.03;100.00
2268;BME280;11052;43.338;25.502;2023-03-21T04:05:49;100458.47;;;7.97;100.00
2268;BME280;11052;43.338;25.502;2023-03-21T04:08:16;100463.63;;;7.97;100.00
2268;BME280;11052;43.338;25.502;2023-03-21T04:10:43;100472.19;;;8.01;100.00
2268;BME280;11052;43.338;25.502;2023-03-21T04:13:12;100471.28;;;8.03;100.00
2268;BME280;11052;43.338;25.502;2023-03-21T04:15:39;100471.22;;;8.06;100.00
2268;BME280;11052;43.338;25.502;2023-03-21T04:18:06;100469.59;;;8.01;100.00
2268;BME280;11052;43.338;25.502;2023-03-21T04:20:33;100463.56;;;8.02;100.00
2268;BME280;11052;43.338;25.502;2023-03-21T04:23:00;100467.13;;;7.95;100.00
2268;BME280;11052;43.338;25.502;2023-03-21T04:25:27;100462.81;;;7.95;100.00
2268;BME280;11052;43.338;25.502;2023-03-21T04:27:55;100468.06;;;7.89;100.00
2268;BME280;11052;43.338;25.502;2023-03-21T04:30:24;100466.25;;;7.94;100.00
2268;BME280;11052;43.338;25.502;2023-03-21T04:32:51;100456.72;;;7.99;100.00
2268;BME280;11052;43.338;25.502;2023-03-21T04:35:22;100459.25;;;8.01;100.00
2268;BME280;11052;43.338;25.502;2023-03-21T04:37:49;100457.47;;;8.06;100.00
2268;BME280;11052;43.338;25.502;2023-03-21T04:40:16;100457.47;;;8.04;100.00
2268;BME280;11052;43.338;25.502;2023-03-21T04:42:45;100467.22;;;7.88;100.00
2268;BME280;11052;43.338;25.502;2023-03-21T04:45:14;100470.38;;;8.04;100.00
2268;BME280;11052;43.338;25.502;2023-03-21T04:47:43;100464.44;;;7.99;100.00
2268;BME280;11052;43.338;25.502;2023-03-21T04:50:11;100458.56;;;7.91;100.00
2268;BME280;11052;43.338;25.502;2023-03-21T04:52:38;100463.69;;;7.93;100.00
2268;BME280;11052;43.338;25.502;2023-03-21T04:55:07;100458.69;;;7.83;100.00
2268;BME280;11052;43.338;25.502;2023-03-21T04:57:35;100462.94;;;7.86;100.00
2268;BME280;11052;43.338;25.502;2023-03-21T05:00:04;100454.50;;;7.79;100.00
2268;BME280;11052;43.338;25.502;2023-03-21T05:02:35;100452.53;;;7.92;100.00
2268;BME280;11052;43.338;25.502;2023-03-21T05:05:05;100466.97;;;8.02;100.00
2268;BME280;11052;43.338;25.502;2023-03-21T05:07:36;100462.38;;;8.19;100.00
2268;BME280;11052;43.338;25.502;2023-03-21T05:10:04;100468.53;;;8.12;100.00
2268;BME280;11052;43.338;25.502;2023-03-21T05:12:31;100475.25;;;8.22;100.00
2268;BME280;11052;43.338;25.502;2023-03-21T05:14:59;100475.97;;;8.31;100.00
2268;BME280;11052;43.338;25.502;2023-03-21T05:17:26;100484.47;;;8.37;100.00
2268;BME280;11052;43.338;25.502;2023-03-21T05:19:54;100469.72;;;8.44;100.00
2268;BME280;11052;43.338;25.502;2023-03-21T05:22:23;100472.19;;;8.50;100.00
2268;BME280;11052;43.338;25.502;2023-03-21T05:24:52;100481.44;;;8.62;100.00
2268;BME280;11052;43.338;25.502;2023-03-21T05:27:21;100479.47;;;8.73;100.00
2268;BME280;11052;43.338;25.502;2023-03-21T05:30:02;100481.94;;;8.79;100.00
2268;BME280;11052;43.338;25.502;2023-03-21T05:32:29;100480.03;;;8.88;100.00
2268;BME280;11052;43.338;25.502;2023-03-21T05:34:57;100487.69;;;8.93;100.00
2268;BME280;11052;43.338;25.502;2023-03-21T05:37:25;100486.72;;;8.99;100.00
2268;BME280;11052;43.338;25.502;2023-03-21T05:39:52;100488.16;;;9.12;100.00
2268;BME280;11052;43.338;25.502;2023-03-21T05:42:20;100487.19;;;9.17;100.00
2268;BME280;11052;43.338;25.502;2023-03-21T05:44:47;100492.16;;;9.27;100.00
2268;BME280;11052;43.338;25.502;2023-03-21T05:47:15;100503.28;;;9.30;100.00
2268;BME280;11052;43.338;25.502;2023-03-21T05:49:43;100494.69;;;9.30;100.00
2268;BME280;11052;43.338;25.502;2023-03-21T05:52:11;100497.06;;;9.39;100.00
2268;BME280;11052;43.338;25.502;2023-03-21T05:54:40;100505.72;;;9.38;100.00
2268;BME280;11052;43.338;25.502;2023-03-21T05:57:08;100502.19;;;9.42;100.00
2268;BME280;11052;43.338;25.502;2023-03-21T05:59:35;100510.66;;;9.48;100.00
2268;BME280;11052;43.338;25.502;2023-03-21T06:02:02;100512.28;;;9.52;100.00
2268;BME280;11052;43.338;25.502;2023-03-21T06:04:30;100507.56;;;9.70;100.00
2268;BME280;11052;43.338;25.502;2023-03-21T06:06:57;100504.66;;;9.83;100.00
2268;BME280;11052;43.338;25.502;2023-03-21T06:09:24;100502.56;;;9.98;100.00
2268;BME280;11052;43.338;25.502;2023-03-21T06:11:54;100504.97;;;10.05;100.00
2268;BME280;11052;43.338;25.502;2023-03-21T06:14:23;100507.53;;;10.07;100.00
2268;BME280;11052;43.338;25.502;2023-03-21T06:16:50;100503.78;;;10.18;100.00
2268;BME280;11052;43.338;25.502;2023-03-21T06:19:18;100503.78;;;10.20;100.00
2268;BME280;11052;43.338;25.502;2023-03-21T06:21:46;100495.78;;;10.29;100.00
2268;BME280;11052;43.338;25.502;2023-03-21T06:24:13;100497.91;;;10.46;100.00
2268;BME280;11052;43.338;25.502;2023-03-21T06:26:40;100504.63;;;10.53;100.00
2268;BME280;11052;43.338;25.502;2023-03-21T06:29:09;100495.78;;;10.60;100.00
2268;BME280;11052;43.338;25.502;2023-03-21T06:31:36;100500.59;;;10.74;100.00
2268;BME280;11052;43.338;25.502;2023-03-21T06:34:04;100489.63;;;10.95;100.00
2268;BME280;11052;43.338;25.502;2023-03-21T06:36:31;100495.69;;;11.25;100.00
2268;BME280;11052;43.338;25.502;2023-03-21T06:38:58;100493.53;;;11.38;100.00
2268;BME280;11052;43.338;25.502;2023-03-21T06:41:25;100496.66;;;11.49;100.00
2268;BME280;11052;43.338;25.502;2023-03-21T06:43:52;100503.59;;;11.78;100.00
2268;BME280;11052;43.338;25.502;2023-03-21T06:46:21;100498.00;;;11.90;100.00
2268;BME280;11052;43.338;25.502;2023-03-21T06:48:48;100493.22;;;12.04;100.00
2268;BME280;11052;43.338;25.502;2023-03-21T06:51:15;100498.91;;;12.40;100.00
2268;BME280;11052;43.338;25.502;2023-03-21T06:53:43;100489.84;;;12.75;100.00
2268;BME280;11052;43.338;25.502;2023-03-21T06:56:11;100488.22;;;12.96;100.00
2268;BME280;11052;43.338;25.502;2023-03-21T06:58:39;100491.81;;;12.94;100.00
2268;BME280;11052;43.338;25.502;2023-03-21T07:01:06;100495.56;;;13.08;100.00
2268;BME280;11052;43.338;25.502;2023-03-21T07:03:35;100497.38;;;13.30;100.00
2268;BME280;11052;43.338;25.502;2023-03-21T07:06:07;100493.97;;;13.73;100.00
2268;BME280;11052;43.338;25.502;2023-03-21T07:08:36;100502.28;;;13.83;100.00
2268;BME280;11052;43.338;25.502;2023-03-21T07:11:04;100504.03;;;13.82;100.00
2268;BME280;11052;43.338;25.502;2023-03-21T07:13:31;100502.28;;;14.03;100.00
2268;BME280;11052;43.338;25.502;2023-03-21T07:15:59;100504.81;;;14.04;100.00
2268;BME280;11052;43.338;25.502;2023-03-21T07:18:27;100501.06;;;14.11;100.00
2268;BME280;11052;43.338;25.502;2023-03-21T07:20:57;100498.22;;;14.38;100.00
2268;BME280;11052;43.338;25.502;2023-03-21T07:23:25;100496.41;;;14.60;100.00
2268;BME280;11052;43.338;25.502;2023-03-21T07:25:52;100503.13;;;14.85;100.00
2268;BME280;11052;43.338;25.502;2023-03-21T07:28:20;100498.09;;;15.19;100.00
2268;BME280;11052;43.338;25.502;2023-03-21T07:30:52;100501.63;;;15.56;100.00
2268;BME280;11052;43.338;25.502;2023-03-21T07:33:20;100507.66;;;15.75;100.00
2268;BME280;11052;43.338;25.502;2023-03-21T07:35:48;100507.16;;;16.03;100.00
2268;BME280;11052;43.338;25.502;2023-03-21T07:38:17;100516.72;;;16.04;93.50
2268;BME280;11052;43.338;25.502;2023-03-21T07:40:45;100509.25;;;15.96;99.71
2268;BME280;11052;43.338;25.502;2023-03-21T07:43:13;100510.50;;;15.52;97.08
2268;BME280;11052;43.338;25.502;2023-03-21T07:45:40;100509.66;;;15.70;100.00
2268;BME280;11052;43.338;25.502;2023-03-21T07:48:08;100505.78;;;16.13;100.00
2268;BME280;11052;43.338;25.502;2023-03-21T07:50:35;100505.97;;;16.60;100.00
2268;BME280;11052;43.338;25.502;2023-03-21T07:53:02;100501.44;;;16.64;86.73
2268;BME280;11052;43.338;25.502;2023-03-21T07:55:31;100505.56;;;16.35;84.13
2268;BME280;11052;43.338;25.502;2023-03-21T07:57:59;100499.28;;;16.55;83.95
2268;BME280;11052;43.338;25.502;2023-03-21T08:00:27;100504.28;;;16.59;81.68
2268;BME280;11052;43.338;25.502;2023-03-21T08:02:55;100505.44;;;16.54;82.94
2268;BME280;11052;43.338;25.502;2023-03-21T08:05:23;100504.44;;;16.74;88.52
2268;BME280;11052;43.338;25.502;2023-03-21T08:07:51;100504.81;;;16.83;88.42
2268;BME280;11052;43.338;25.502;2023-03-21T08:10:18;100492.78;;;16.96;89.58
2268;BME280;11052;43.338;25.502;2023-03-21T08:12:47;100498.31;;;17.23;89.22
2268;BME280;11052;43.338;25.502;2023-03-21T08:15:14;100503.13;;;17.31;85.36
2268;BME280;11052;43.338;25.502;2023-03-21T08:17:42;100502.19;;;17.48;82.78
2268;BME280;11052;43.338;25.502;2023-03-21T08:20:12;100493.31;;;17.66;83.33
2268;BME280;11052;43.338;25.502;2023-03-21T08:22:40;100492.31;;;17.68;88.70
2268;BME280;11052;43.338;25.502;2023-03-21T08:25:09;100492.03;;;17.89;81.62
2268;BME280;11052;43.338;25.502;2023-03-21T08:27:38;100493.72;;;17.90;76.64
2268;BME280;11052;43.338;25.502;2023-03-21T08:30:09;100489.41;;;17.89;77.46
2268;BME280;11052;43.338;25.502;2023-03-21T08:32:37;100490.41;;;17.86;75.09
2268;BME280;11052;43.338;25.502;2023-03-21T08:35:06;100489.28;;;18.06;75.91
2268;BME280;11052;43.338;25.502;2023-03-21T08:37:34;100485.00;;;17.89;71.58
2268;BME280;11052;43.338;25.502;2023-03-21T08:40:02;100491.63;;;18.25;75.93
2268;BME280;11052;43.338;25.502;2023-03-21T08:42:32;100489.91;;;18.40;74.86
2268;BME280;11052;43.338;25.502;2023-03-21T08:44:59;100486.81;;;18.47;73.02
2268;BME280;11052;43.338;25.502;2023-03-21T08:47:27;100486.22;;;18.14;70.55
2268;BME280;11052;43.338;25.502;2023-03-21T08:49:55;100485.94;;;18.18;73.58
2268;BME280;11052;43.338;25.502;2023-03-21T08:52:23;100490.91;;;17.93;76.21
2268;BME280;11052;43.338;25.502;2023-03-21T08:54:51;100497.31;;;18.03;75.68
2268;BME280;11052;43.338;25.502;2023-03-21T08:57:18;100489.38;;;18.05;73.58
2268;BME280;11052;43.338;25.502;2023-03-21T08:59:45;100484.84;;;17.77;73.06
2268;BME280;11052;43.338;25.502;2023-03-21T09:02:13;100492.28;;;17.84;73.20
2268;BME280;11052;43.338;25.502;2023-03-21T09:04:42;100485.34;;;17.83;74.05
2268;BME280;11052;43.338;25.502;2023-03-21T09:07:10;100485.94;;;17.73;76.59
2268;BME280;11052;43.338;25.502;2023-03-21T09:09:37;100483.13;;;17.91;74.80
2268;BME280;11052;43.338;25.502;2023-03-21T09:12:04;100486.50;;;17.93;69.95
2268;BME280;11052;43.338;25.502;2023-03-21T09:14:32;100478.91;;;17.89;73.47
2268;BME280;11052;43.338;25.502;2023-03-21T09:17:00;100479.22;;;17.98;69.74
2268;BME280;11052;43.338;25.502;2023-03-21T09:19:27;100467.25;;;18.09;71.09
2268;BME280;11052;43.338;25.502;2023-03-21T09:21:56;100471.31;;;18.14;70.84
2268;BME280;11052;43.338;25.502;2023-03-21T09:24:24;100466.69;;;18.04;69.30
2268;BME280;11052;43.338;25.502;2023-03-21T09:26:51;100463.75;;;17.94;69.74
2268;BME280;11052;43.338;25.502;2023-03-21T09:29:18;100463.84;;;17.61;71.53
2268;BME280;11052;43.338;25.502;2023-03-21T09:31:45;100468.88;;;17.65;71.76
2268;BME280;11052;43.338;25.502;2023-03-21T09:34:13;100455.06;;;17.78;69.50
2268;BME280;11052;43.338;25.502;2023-03-21T09:36:40;100460.66;;;17.72;71.26
2268;BME280;11052;43.338;25.502;2023-03-21T09:39:10;100464.31;;;17.69;71.51
2268;BME280;11052;43.338;25.502;2023-03-21T09:41:59;100452.22;;;17.66;69.90
2268;BME280;11052;43.338;25.502;2023-03-21T09:44:41;100463.03;;;17.76;73.66
2268;BME280;11052;43.338;25.502;2023-03-21T09:47:17;100465.31;;;17.82;72.16
2268;BME280;11052;43.338;25.502;2023-03-21T09:49:49;100459.03;;;17.85;71.09
2268;BME280;11052;43.338;25.502;2023-03-21T09:52:21;100452.25;;;17.96;70.13
2268;BME280;11052;43.338;25.502;2023-03-21T09:54:51;100451.47;;;17.94;70.00
2268;BME280;11052;43.338;25.502;2023-03-21T09:57:28;100449.31;;;17.87;69.16
2268;BME280;11052;43.338;25.502;2023-03-21T09:59:58;100448.69;;;17.97;67.41
2268;BME280;11052;43.338;25.502;2023-03-21T10:02:38;100441.38;;;18.02;67.23
2268;BME280;11052;43.338;25.502;2023-03-21T10:05:11;100436.53;;;18.25;65.07
2268;BME280;11052;43.338;25.502;2023-03-21T10:07:41;100437.09;;;18.30;66.68
2268;BME280;11052;43.338;25.502;2023-03-21T10:10:18;100437.66;;;18.21;65.03
2268;BME280;11052;43.338;25.502;2023-03-21T10:12:46;100442.75;;;18.38;65.11
2268;BME280;11052;43.338;25.502;2023-03-21T10:15:17;100440.03;;;18.40;63.34
2268;BME280;11052;43.338;25.502;2023-03-21T10:17:50;100434.69;;;18.55;64.71
2268;BME280;11052;43.338;25.502;2023-03-21T10:20:20;100435.44;;;18.57;65.03
2268;BME280;11052;43.338;25.502;2023-03-21T10:22:49;100437.22;;;18.57;64.86
2268;BME280;11052;43.338;25.502;2023-03-21T10:25:23;100442.19;;;18.47;63.71
2268;BME280;11052;43.338;25.502;2023-03-21T10:27:50;100417.81;;;18.45;65.87
2268;BME280;11052;43.338;25.502;2023-03-21T10:30:25;100415.88;;;18.77;65.93
2268;BME280;11052;43.338;25.502;2023-03-21T10:32:55;100418.31;;;18.80;66.79
2268;BME280;11052;43.338;25.502;2023-03-21T10:35:23;100414.84;;;18.80;65.79
2268;BME280;11052;43.338;25.502;2023-03-21T10:37:52;100417.63;;;18.91;64.21
2268;BME280;11052;43.338;25.502;2023-03-21T10:40:20;100415.00;;;19.05;64.85
2268;BME280;11052;43.338;25.502;2023-03-21T10:42:47;100411.19;;;19.09;62.64
2268;BME280;11052;43.338;25.502;2023-03-21T10:45:16;100413.69;;;18.98;61.57
2268;BME280;11052;43.338;25.502;2023-03-21T10:47:47;100407.53;;;19.12;60.31
2268;BME280;11052;43.338;25.502;2023-03-21T10:50:17;100402.22;;;19.26;59.21
2268;BME280;11052;43.338;25.502;2023-03-21T10:52:54;100408.91;;;19.17;58.26
2268;BME280;11052;43.338;25.502;2023-03-21T10:55:27;100402.78;;;19.31;60.29
2268;BME280;11052;43.338;25.502;2023-03-21T10:57:59;100401.78;;;19.46;60.38
2268;BME280;11052;43.338;25.502;2023-03-21T11:00:33;100406.00;;;19.49;60.62
2268;BME280;11052;43.338;25.502;2023-03-21T11:03:02;100399.44;;;19.56;60.12
2268;BME280;11052;43.338;25.502;2023-03-21T11:05:34;100400.63;;;19.64;62.94
2268;BME280;11052;43.338;25.502;2023-03-21T11:08:03;100401.50;;;19.51;60.60
2268;BME280;11052;43.338;25.502;2023-03-21T11:10:34;100402.72;;;19.45;57.18
2268;BME280;11052;43.338;25.502;2023-03-21T11:13:07;100401.88;;;19.45;56.89
2268;BME280;11052;43.338;25.502;2023-03-21T11:15:51;100391.53;;;19.29;59.72
2268;BME280;11052;43.338;25.502;2023-03-21T11:18:20;100392.81;;;19.36;57.75
2268;BME280;11052;43.338;25.502;2023-03-21T11:20:50;100386.97;;;19.45;60.46
2268;BME280;11052;43.338;25.502;2023-03-21T11:23:18;100377.69;;;19.13;61.33
2268;BME280;11052;43.338;25.502;2023-03-21T11:25:49;100379.44;;;18.99;63.46
2268;BME280;11052;43.338;25.502;2023-03-21T11:28:18;100375.97;;;18.99;63.49
2268;BME280;11052;43.338;25.502;2023-03-21T11:30:54;100376.91;;;18.98;63.27
2268;BME280;11052;43.338;25.502;2023-03-21T11:33:25;100370.31;;;19.05;63.10
2268;BME280;11052;43.338;25.502;2023-03-21T11:36:01;100359.47;;;19.10;64.45
2268;BME280;11052;43.338;25.502;2023-03-21T11:38:31;100362.81;;;18.99;63.09
2268;BME280;11052;43.338;25.502;2023-03-21T11:41:01;100357.69;;;18.83;63.82
2268;BME280;11052;43.338;25.502;2023-03-21T11:43:31;100365.00;;;18.92;62.44
2268;BME280;11052;43.338;25.502;2023-03-21T11:46:05;100360.09;;;19.01;61.39
2268;BME280;11052;43.338;25.502;2023-03-21T11:48:39;100359.56;;;18.95;62.87
2268;BME280;11052;43.338;25.502;2023-03-21T11:51:15;100352.59;;;18.94;62.73
2268;BME280;11052;43.338;25.502;2023-03-21T11:53:48;100356.00;;;18.82;63.50
2268;BME280;11052;43.338;25.502;2023-03-21T11:56:27;100353.00;;;18.88;62.10
2268;BME280;11052;43.338;25.502;2023-03-21T11:59:03;100354.41;;;18.94;61.77
2268;BME280;11052;43.338;25.502;2023-03-21T12:01:38;100347.63;;;19.04;61.69
2268;BME280;11052;43.338;25.502;2023-03-21T12:04:19;100346.53;;;18.80;62.36
2268;BME280;11052;43.338;25.502;2023-03-21T12:06:51;100340.91;;;18.86;60.89
2268;BME280;11052;43.338;25.502;2023-03-21T12:09:31;100331.44;;;18.83;63.01
2268;BME280;11052;43.338;25.502;2023-03-21T12:12:10;100330.72;;;18.67;64.27
2268;BME280;11052;43.338;25.502;2023-03-21T12:14:47;100321.16;;;18.66;63.54
2268;BME280;11052;43.338;25.502;2023-03-21T12:17:27;100315.06;;;18.65;66.94
2268;BME280;11052;43.338;25.502;2023-03-21T12:20:15;100312.97;;;18.56;69.71
2268;BME280;11052;43.338;25.502;2023-03-21T12:22:57;100320.59;;;18.32;70.27
2268;BME280;11052;43.338;25.502;2023-03-21T12:25:31;100328.09;;;17.96;71.50
2268;BME280;11052;43.338;25.502;2023-03-21T12:28:10;100322.38;;;17.89;70.52
2268;BME280;11052;43.338;25.502;2023-03-21T12:30:47;100326.66;;;17.76;70.90
2268;BME280;11052;43.338;25.502;2023-03-21T12:33:40;100320.13;;;17.53;71.90
2268;BME280;11052;43.338;25.502;2023-03-21T12:36:22;100318.91;;;17.59;73.22
2268;BME280;11052;43.338;25.502;2023-03-21T12:38:59;100320.53;;;17.61;71.37
2268;BME280;11052;43.338;25.502;2023-03-21T12:41:32;100312.66;;;17.61;72.53
2268;BME280;11052;43.338;25.502;2023-03-21T12:44:03;100319.91;;;17.72;71.21
2268;BME280;11052;43.338;25.502;2023-03-21T12:46:33;100309.34;;;17.74;68.76
2268;BME280;11052;43.338;25.502;2023-03-21T12:49:05;100308.69;;;17.70;69.37
2268;BME280;11052;43.338;25.502;2023-03-21T12:51:38;100295.38;;;17.73;70.31
2268;BME280;11052;43.338;25.502;2023-03-21T12:54:16;100296.72;;;17.80;69.75
2268;BME280;11052;43.338;25.502;2023-03-21T12:56:49;100283.69;;;17.79;72.65
2268;BME280;11052;43.338;25.502;2023-03-21T12:59:30;100278.06;;;17.85;69.24
2268;BME280;11052;43.338;25.502;2023-03-21T13:02:07;100274.63;;;17.84;70.58
2268;BME280;11052;43.338;25.502;2023-03-21T13:04:44;100270.50;;;17.80;73.08
2268;BME280;11052;43.338;25.502;2023-03-21T13:07:16;100266.56;;;17.87;68.95